createdAt,value
2022-11-19T00:01:22.269Z,11.92
2022-11-19T00:03:52.637Z,11.84
2022-11-19T00:06:22.676Z,11.80
2022-11-19T00:08:50.114Z,11.68
2022-11-19T00:11:40.391Z,11.46
2022-11-19T00:14:07.807Z,11.25
2022-11-19T00:16:35.379Z,11.47
2022-11-19T00:19:02.325Z,11.48
2022-11-19T00:21:29.174Z,11.45
2022-11-19T00:23:56.381Z,11.50
2022-11-19T00:26:23.910Z,11.39
2022-11-19T00:28:50.777Z,11.36
2022-11-19T00:31:18.355Z,11.42
2022-11-19T00:33:46.271Z,11.23
2022-11-19T00:36:15.517Z,11.33
2022-11-19T00:38:43.407Z,11.28
2022-11-19T00:41:10.565Z,11.25
2022-11-19T00:43:52.461Z,11.24
2022-11-19T00:46:25.121Z,11.22
2022-11-19T00:48:53.923Z,11.19
2022-11-19T00:51:22.271Z,11.20
2022-11-19T00:53:49.152Z,11.24
2022-11-19T00:56:19.826Z,11.21
2022-11-19T00:58:48.096Z,11.27
2022-11-19T01:01:16.221Z,11.33
2022-11-19T01:03:45.760Z,11.36
2022-11-19T01:06:18.828Z,11.41
2022-11-19T01:08:47.621Z,11.49
2022-11-19T01:11:20.574Z,11.53
2022-11-19T01:13:47.422Z,11.59
2022-11-19T01:16:17.962Z,11.52
2022-11-19T01:18:47.010Z,11.44
2022-11-19T01:21:14.320Z,11.37
2022-11-19T01:23:42.253Z,11.30
2022-11-19T01:26:10.189Z,11.27
2022-11-19T01:28:38.233Z,11.18
2022-11-19T01:31:16.919Z,11.21
2022-11-19T01:33:44.238Z,11.22
2022-11-19T01:36:14.108Z,11.29
2022-11-19T01:38:41.110Z,11.26
2022-11-19T01:41:08.440Z,11.16
2022-11-19T01:43:50.332Z,11.17
2022-11-19T01:46:22.530Z,11.24
2022-11-19T01:49:01.084Z,11.29
2022-11-19T01:51:59.037Z,11.30
2022-11-19T01:54:41.373Z,11.43
2022-11-19T01:57:11.564Z,11.47
2022-11-19T01:59:38.859Z,11.29
2022-11-19T02:02:06.111Z,11.53
2022-11-19T02:04:34.306Z,11.65
2022-11-19T02:07:02.341Z,11.70
2022-11-19T02:09:29.788Z,11.70
2022-11-19T02:12:05.514Z,11.71
2022-11-19T02:14:41.324Z,11.74
2022-11-19T02:17:55.303Z,11.68
2022-11-19T02:20:56.470Z,11.59
2022-11-19T02:23:51.019Z,11.58
2022-11-19T02:27:03.151Z,11.63
2022-11-19T02:29:29.797Z,11.75
2022-11-19T02:32:26.138Z,11.63
2022-11-19T02:35:06.484Z,11.75
2022-11-19T02:37:43.557Z,11.76
2022-11-19T02:40:22.190Z,11.75
2022-11-19T02:42:48.977Z,11.81
2022-11-19T02:46:00.204Z,11.68
2022-11-19T02:48:50.047Z,11.65
2022-11-19T02:51:18.654Z,11.72
2022-11-19T02:53:48.318Z,11.65
2022-11-19T02:56:36.161Z,11.63
2022-11-19T02:59:22.820Z,11.55
2022-11-19T03:02:09.324Z,11.50
2022-11-19T03:04:36.123Z,11.30
2022-11-19T03:07:11.017Z,11.44
2022-11-19T03:09:46.283Z,11.37
2022-11-19T03:12:31.119Z,11.17
2022-11-19T03:15:22.828Z,11.22
2022-11-19T03:18:01.508Z,11.25
2022-11-19T03:20:36.924Z,11.24
2022-11-19T03:23:21.655Z,11.22
2022-11-19T03:25:58.837Z,11.19
2022-11-19T03:28:33.048Z,11.15
2022-11-19T03:31:01.132Z,11.14
2022-11-19T03:33:41.083Z,10.98
2022-11-19T03:36:12.558Z,11.01
2022-11-19T03:38:44.571Z,10.99
2022-11-19T03:41:15.268Z,11.02
2022-11-19T03:43:46.604Z,11.09
2022-11-19T03:46:18.482Z,11.16
2022-11-19T03:48:48.314Z,11.27
2022-11-19T03:51:25.970Z,11.30
2022-11-19T03:53:53.391Z,11.36
2022-11-19T03:56:24.027Z,11.36
2022-11-19T03:58:53.699Z,11.48
2022-11-19T04:01:20.997Z,11.51
2022-11-19T04:04:07.931Z,11.55
2022-11-19T04:06:34.692Z,11.52
2022-11-19T04:09:01.408Z,11.62
2022-11-19T04:13:53.767Z,11.70
2022-11-19T04:16:20.459Z,11.71
2022-11-19T04:18:47.308Z,11.74
2022-11-19T04:21:14.018Z,11.78
2022-11-19T04:23:40.698Z,11.83
2022-11-19T04:26:07.460Z,11.88
2022-11-19T04:28:34.176Z,11.81
2022-11-19T04:31:00.899Z,11.91
2022-11-19T04:33:27.693Z,11.82
2022-11-19T04:35:54.404Z,11.84
2022-11-19T04:38:21.129Z,11.78
2022-11-19T04:40:47.920Z,11.72
2022-11-19T04:43:14.680Z,11.50
2022-11-19T04:45:41.365Z,11.58
2022-11-19T04:48:08.156Z,11.53
2022-11-19T04:50:34.967Z,11.42
2022-11-19T04:53:01.742Z,11.40
2022-11-19T04:55:28.624Z,11.27
2022-11-19T04:57:55.409Z,11.17
2022-11-19T05:00:23.211Z,11.12
2022-11-19T05:02:49.929Z,11.03
2022-11-19T05:05:16.870Z,10.96
2022-11-19T05:07:43.555Z,10.85
2022-11-19T05:10:10.615Z,10.75
2022-11-19T05:12:37.404Z,10.70
2022-11-19T05:15:04.641Z,10.58
2022-11-19T05:17:31.344Z,10.49
2022-11-19T05:20:00.148Z,10.44
2022-11-19T05:22:26.967Z,10.43
2022-11-19T05:24:53.666Z,10.44
2022-11-19T05:27:20.403Z,10.39
2022-11-19T05:29:47.083Z,10.33
2022-11-19T05:32:13.834Z,10.24
2022-11-19T05:34:40.687Z,10.17
2022-11-19T05:37:07.391Z,10.17
2022-11-19T05:39:34.244Z,10.33
2022-11-19T05:42:01.335Z,10.41
2022-11-19T05:44:28.017Z,10.29
2022-11-19T05:46:57.844Z,10.07
2022-11-19T05:49:24.646Z,9.96
2022-11-19T05:51:51.356Z,9.79
2022-11-19T05:54:18.229Z,9.72
2022-11-19T05:56:45.103Z,9.65
2022-11-19T05:59:11.847Z,9.67
2022-11-19T06:01:38.592Z,9.67
2022-11-19T06:04:05.448Z,9.69
2022-11-19T06:06:32.144Z,9.58
2022-11-19T06:08:58.879Z,9.66
2022-11-19T06:11:44.111Z,9.66
2022-11-19T06:14:10.802Z,9.66
2022-11-19T06:16:37.530Z,9.56
2022-11-19T06:19:04.324Z,9.68
2022-11-19T06:21:31.282Z,9.64
2022-11-19T06:23:58.025Z,9.61
2022-11-19T06:26:26.697Z,9.61
2022-11-19T06:28:53.833Z,9.59
2022-11-19T06:31:20.969Z,9.60
2022-11-19T06:33:48.481Z,9.63
2022-11-19T06:36:15.486Z,9.62
2022-11-19T06:38:42.217Z,9.64
2022-11-19T06:41:09.047Z,9.60
2022-11-19T06:43:35.819Z,9.60
2022-11-19T06:46:02.508Z,9.57
2022-11-19T06:48:29.375Z,9.62
2022-11-19T06:50:56.778Z,9.64
2022-11-19T06:53:23.550Z,9.60
2022-11-19T06:55:59.351Z,9.55
2022-11-19T06:58:26.374Z,9.58
2022-11-19T07:00:53.079Z,9.52
2022-11-19T07:03:20.365Z,9.51
2022-11-19T07:05:48.386Z,9.53
2022-11-19T07:08:16.168Z,9.48
2022-11-19T07:10:43.824Z,9.42
2022-11-19T07:13:10.589Z,9.32
2022-11-19T07:15:37.804Z,9.30
2022-11-19T07:18:04.797Z,9.23
2022-11-19T07:20:31.815Z,9.12
2022-11-19T07:22:59.551Z,9.23
2022-11-19T07:25:27.394Z,9.27
2022-11-19T07:27:54.444Z,9.25
2022-11-19T07:30:21.130Z,9.27
2022-11-19T07:32:47.921Z,9.25
2022-11-19T07:35:14.712Z,9.29
2022-11-19T07:37:41.454Z,9.27
2022-11-19T07:40:11.370Z,9.34
2022-11-19T07:42:53.047Z,9.42
2022-11-19T07:45:22.381Z,9.65
2022-11-19T07:47:49.118Z,9.80
2022-11-19T07:50:17.299Z,9.96
2022-11-19T07:52:44.278Z,10.08
2022-11-19T07:55:11.182Z,10.24
2022-11-19T07:57:38.171Z,10.38
2022-11-19T08:00:06.612Z,10.50
2022-11-19T08:02:33.460Z,10.63
2022-11-19T08:05:00.168Z,10.43
2022-11-19T08:07:27.133Z,10.39
2022-11-19T08:09:53.905Z,10.20
2022-11-19T08:12:20.620Z,10.23
2022-11-19T08:14:47.459Z,10.25
2022-11-19T08:17:32.584Z,10.28
2022-11-19T08:19:59.520Z,10.20
2022-11-19T08:22:26.294Z,10.30
2022-11-19T08:24:52.997Z,10.28
2022-11-19T08:27:19.854Z,10.42
2022-11-19T08:29:46.698Z,10.44
2022-11-19T08:32:13.519Z,10.47
2022-11-19T08:34:40.324Z,10.35
2022-11-19T08:37:07.256Z,10.58
2022-11-19T08:39:34.026Z,10.61
2022-11-19T08:42:19.652Z,10.66
2022-11-19T08:44:46.550Z,10.63
2022-11-19T08:47:13.284Z,10.64
2022-11-19T08:49:40.112Z,10.62
2022-11-19T08:52:06.906Z,10.60
2022-11-19T08:54:33.625Z,10.55
2022-11-19T08:57:00.466Z,10.66
2022-11-19T08:59:27.188Z,10.75
2022-11-19T09:01:53.888Z,10.81
2022-11-19T09:04:20.953Z,10.96
2022-11-19T09:06:47.910Z,11.21
2022-11-19T09:09:14.591Z,11.41
2022-11-19T09:11:43.060Z,11.58
2022-11-19T09:14:10.500Z,11.73
2022-11-19T09:16:37.234Z,12.06
2022-11-19T09:19:04.149Z,12.04
2022-11-19T09:21:30.888Z,12.13
2022-11-19T09:23:57.592Z,12.30
2022-11-19T09:26:24.438Z,12.65
2022-11-19T09:28:51.193Z,12.82
2022-11-19T09:31:20.012Z,12.84
2022-11-19T09:33:49.271Z,12.68
2022-11-19T09:36:17.774Z,12.77
2022-11-19T09:38:44.630Z,12.92
2022-11-19T09:41:29.301Z,13.07
2022-11-19T09:44:26.775Z,13.25
2022-11-19T09:47:02.897Z,13.51
2022-11-19T09:50:00.722Z,13.40
2022-11-19T09:52:33.974Z,13.31
2022-11-19T09:55:02.021Z,13.23
2022-11-19T09:57:39.685Z,13.35
2022-11-19T10:00:08.576Z,13.50
2022-11-19T10:02:35.431Z,13.57
2022-11-19T10:05:03.388Z,13.63
2022-11-19T10:07:44.917Z,13.68
2022-11-19T10:10:20.898Z,13.62
2022-11-19T10:13:15.441Z,13.47
2022-11-19T10:15:48.349Z,13.50
2022-11-19T10:18:21.163Z,13.63
2022-11-19T10:21:00.578Z,13.68
2022-11-19T10:23:42.803Z,13.77
2022-11-19T10:26:16.271Z,13.73
2022-11-19T10:28:51.785Z,13.72
2022-11-19T10:31:36.940Z,13.72
2022-11-19T10:34:28.443Z,13.72
2022-11-19T10:37:00.329Z,13.69
2022-11-19T10:39:37.302Z,13.72
2022-11-19T10:42:28.915Z,13.86
2022-11-19T10:45:13.676Z,13.91
2022-11-19T10:47:53.337Z,14.09
2022-11-19T10:50:22.967Z,14.39
2022-11-19T10:53:17.525Z,14.56
2022-11-19T10:56:00.638Z,14.86
2022-11-19T10:58:33.960Z,15.16
2022-11-19T11:01:03.705Z,15.33
2022-11-19T11:03:52.505Z,15.53
2022-11-19T11:06:19.197Z,15.75
2022-11-19T11:08:54.341Z,16.00
2022-11-19T11:11:53.048Z,15.99
2022-11-19T11:14:41.529Z,16.06
2022-11-19T11:17:29.472Z,16.31
2022-11-19T11:20:11.031Z,16.52
2022-11-19T11:22:38.654Z,17.05
2022-11-19T11:25:20.810Z,17.47
2022-11-19T11:28:04.617Z,17.76
2022-11-19T11:30:31.507Z,18.29
2022-11-19T11:32:58.267Z,18.82
2022-11-19T11:35:34.175Z,18.88
2022-11-19T11:38:02.503Z,18.81
2022-11-19T11:40:30.357Z,18.64
2022-11-19T11:42:57.877Z,18.37
2022-11-19T11:45:32.445Z,18.22
2022-11-19T11:48:06.235Z,18.15
2022-11-19T11:50:33.395Z,18.05
2022-11-19T11:53:09.415Z,18.21
2022-11-19T11:55:38.625Z,18.66
2022-11-19T11:58:24.350Z,18.76
2022-11-19T12:00:55.443Z,18.76
2022-11-19T12:03:22.616Z,18.58
2022-11-19T12:06:12.081Z,18.37
2022-11-19T12:08:53.983Z,18.34
2022-11-19T12:11:58.297Z,18.02
2022-11-19T12:14:37.130Z,17.86
2022-11-19T12:17:31.922Z,17.66
2022-11-19T12:20:21.572Z,17.64
2022-11-19T12:23:13.818Z,17.54
2022-11-19T12:25:47.884Z,17.55
2022-11-19T12:29:09.027Z,17.45
2022-11-19T12:31:56.481Z,17.32
2022-11-19T12:34:29.013Z,17.21
2022-11-19T12:37:37.513Z,16.94
2022-11-19T12:40:54.850Z,16.78
2022-11-19T12:43:29.329Z,16.75
2022-11-19T12:46:15.415Z,16.79
2022-11-19T12:49:11.356Z,16.84
2022-11-19T12:51:52.402Z,16.75
2022-11-19T12:54:46.898Z,16.73
2022-11-19T12:57:52.513Z,16.81
2022-11-19T13:00:21.848Z,17.07
2022-11-19T13:03:12.431Z,17.06
2022-11-19T13:05:47.905Z,16.96
2022-11-19T13:08:31.407Z,16.59
2022-11-19T13:10:58.064Z,16.56
2022-11-19T13:13:29.472Z,16.44
2022-11-19T13:15:59.102Z,16.38
2022-11-19T13:18:31.139Z,16.14
2022-11-19T13:21:07.527Z,16.10
2022-11-19T13:23:42.196Z,15.98
2022-11-19T13:26:17.714Z,15.80
2022-11-19T13:29:08.710Z,15.76
2022-11-19T13:32:11.097Z,15.59
2022-11-19T13:34:47.353Z,15.46
2022-11-19T13:37:28.098Z,15.34
2022-11-19T13:40:03.092Z,15.30
2022-11-19T13:43:04.169Z,15.29
2022-11-19T13:45:39.465Z,15.31
2022-11-19T13:48:20.174Z,15.24
2022-11-19T13:50:50.530Z,15.30
2022-11-19T13:53:26.896Z,15.24
2022-11-19T13:55:58.333Z,15.13
2022-11-19T13:58:37.954Z,14.90
2022-11-19T14:01:08.549Z,14.82
2022-11-19T14:03:53.623Z,14.69
2022-11-19T14:06:42.101Z,14.53
2022-11-19T14:09:30.524Z,14.26
2022-11-19T14:12:09.055Z,14.02
2022-11-19T14:15:09.192Z,13.94
2022-11-19T14:18:04.378Z,13.44
2022-11-19T14:20:58.375Z,13.51
2022-11-19T14:24:02.568Z,13.38
2022-11-19T14:26:41.305Z,13.28
2022-11-19T14:29:26.463Z,13.25
2022-11-19T14:32:08.252Z,13.33
2022-11-19T14:34:38.795Z,13.25
2022-11-19T14:37:20.083Z,13.24
2022-11-19T14:39:59.157Z,13.27
2022-11-19T14:42:26.005Z,13.32
2022-11-19T14:45:02.918Z,13.43
2022-11-19T14:47:43.802Z,13.41
2022-11-19T14:50:28.292Z,13.33
2022-11-19T14:52:58.076Z,13.27
2022-11-19T14:55:27.988Z,13.36
2022-11-19T14:57:56.773Z,13.23
2022-11-19T15:00:27.433Z,13.18
2022-11-19T15:02:56.662Z,12.91
2022-11-19T15:05:27.175Z,12.97
2022-11-19T15:08:46.097Z,12.79
2022-11-19T15:11:14.648Z,12.89
2022-11-19T15:13:49.141Z,12.89
2022-11-19T15:16:27.600Z,12.99
2022-11-19T15:19:03.000Z,13.14
2022-11-19T15:21:45.153Z,13.16
2022-11-19T15:24:30.401Z,13.15
2022-11-19T15:27:26.011Z,12.99
2022-11-19T15:30:19.863Z,12.91
2022-11-19T15:33:17.085Z,12.92
2022-11-19T15:36:20.789Z,12.84
2022-11-19T15:38:57.807Z,12.87
2022-11-19T15:41:26.127Z,12.85
2022-11-19T15:43:59.881Z,12.84
2022-11-19T15:46:32.615Z,12.92
2022-11-19T15:49:39.690Z,12.86
2022-11-19T15:52:13.020Z,13.01
2022-11-19T15:54:43.802Z,13.07
2022-11-19T15:57:26.447Z,13.16
2022-11-19T16:00:00.058Z,13.30
2022-11-19T16:02:32.732Z,13.37
2022-11-19T16:04:59.721Z,13.34
2022-11-19T16:07:29.754Z,13.40
2022-11-19T16:09:58.554Z,13.31
2022-11-19T16:12:46.134Z,13.45
2022-11-19T16:15:43.847Z,13.41
2022-11-19T16:18:19.003Z,13.36
2022-11-19T16:20:51.640Z,13.40
2022-11-19T16:23:23.115Z,13.41
2022-11-19T16:25:50.447Z,13.37
2022-11-19T16:28:24.629Z,13.35
2022-11-19T16:31:13.223Z,13.21
2022-11-19T16:33:40.532Z,13.51
2022-11-19T16:36:18.271Z,13.56
2022-11-19T16:39:05.562Z,13.46
2022-11-19T16:41:52.343Z,13.63
2022-11-19T16:44:22.027Z,13.67
2022-11-19T16:46:49.608Z,13.63
2022-11-19T16:49:49.519Z,13.58
2022-11-19T16:52:35.628Z,13.43
2022-11-19T16:55:04.961Z,13.48
2022-11-19T16:57:32.575Z,13.38
2022-11-19T17:00:02.113Z,13.31
2022-11-19T17:02:36.349Z,13.14
2022-11-19T17:05:16.946Z,13.10
2022-11-19T17:08:05.006Z,13.02
2022-11-19T17:10:32.226Z,12.95
2022-11-19T17:13:13.873Z,12.87
2022-11-19T17:15:44.595Z,12.80
2022-11-19T17:18:20.393Z,12.78
2022-11-19T17:21:00.662Z,12.72
2022-11-19T17:23:29.001Z,12.49
2022-11-19T17:25:57.420Z,12.74
2022-11-19T17:28:41.099Z,12.79
2022-11-19T17:31:20.677Z,12.77
2022-11-19T17:33:51.668Z,12.76
2022-11-19T17:36:18.738Z,12.71
2022-11-19T17:38:45.631Z,12.78
2022-11-19T17:41:16.031Z,12.77
2022-11-19T17:44:01.456Z,12.78
2022-11-19T17:46:30.418Z,12.89
2022-11-19T17:48:57.463Z,12.96
2022-11-19T17:51:26.135Z,13.03
2022-11-19T17:53:53.462Z,13.07
2022-11-19T17:56:28.900Z,13.07
2022-11-19T17:58:56.251Z,13.07
2022-11-19T18:01:23.079Z,13.16
2022-11-19T18:03:50.045Z,13.16
2022-11-19T18:06:17.961Z,13.13
2022-11-19T18:08:45.394Z,13.11
2022-11-19T18:11:16.195Z,13.09
2022-11-19T18:13:44.327Z,13.02
2022-11-19T18:16:25.454Z,13.03
2022-11-19T18:18:52.468Z,13.07
2022-11-19T18:21:22.066Z,13.05
2022-11-19T18:23:50.997Z,13.02
2022-11-19T18:26:20.466Z,13.05
2022-11-19T18:28:49.056Z,13.00
2022-11-19T18:31:27.853Z,12.89
2022-11-19T18:33:56.089Z,12.87
2022-11-19T18:36:25.176Z,12.77
2022-11-19T18:38:53.000Z,12.76
2022-11-19T18:41:19.840Z,12.75
2022-11-19T18:44:05.476Z,12.56
2022-11-19T18:46:32.319Z,12.42
2022-11-19T18:48:59.885Z,12.31
2022-11-19T18:51:29.339Z,12.27
2022-11-19T18:53:56.044Z,12.14
2022-11-19T18:56:23.028Z,12.16
2022-11-19T18:58:49.844Z,12.19
2022-11-19T19:01:17.391Z,12.27
2022-11-19T19:03:44.645Z,12.33
2022-11-19T19:06:11.927Z,12.28
2022-11-19T19:08:38.688Z,12.05
2022-11-19T19:11:26.109Z,12.13
2022-11-19T19:13:53.108Z,12.12
2022-11-19T19:16:19.985Z,12.11
2022-11-19T19:18:47.129Z,12.24
2022-11-19T19:21:15.663Z,12.24
2022-11-19T19:23:42.841Z,12.14
2022-11-19T19:26:11.494Z,12.15
2022-11-19T19:28:38.865Z,12.13
2022-11-19T19:31:06.362Z,12.13
2022-11-19T19:33:33.606Z,11.99
2022-11-19T19:36:03.442Z,11.98
2022-11-19T19:38:30.234Z,12.03
2022-11-19T19:41:07.804Z,11.92
2022-11-19T19:43:34.645Z,11.96
2022-11-19T19:46:05.990Z,11.91
2022-11-19T19:48:32.831Z,11.79
2022-11-19T19:50:59.513Z,11.78
2022-11-19T19:53:26.292Z,11.71
2022-11-19T19:56:01.015Z,11.92
2022-11-19T19:58:28.300Z,11.88
2022-11-19T20:00:55.112Z,11.85
2022-11-19T20:03:25.809Z,11.90
2022-11-19T20:05:52.556Z,11.90
2022-11-19T20:08:19.273Z,11.84
2022-11-19T20:10:45.990Z,11.95
2022-11-19T20:13:27.616Z,11.91
2022-11-19T20:15:58.260Z,11.84
2022-11-19T20:18:25.549Z,11.81
2022-11-19T20:20:52.397Z,11.83
2022-11-19T20:23:19.308Z,11.84
2022-11-19T20:25:46.021Z,11.87
2022-11-19T20:28:12.820Z,11.87
2022-11-19T20:30:39.678Z,11.86
2022-11-19T20:33:06.394Z,11.89
2022-11-19T20:35:33.169Z,11.93
2022-11-19T20:38:03.435Z,11.90
2022-11-19T20:40:30.521Z,11.86
2022-11-19T20:43:16.060Z,11.94
2022-11-19T20:45:42.739Z,11.78
2022-11-19T20:48:09.490Z,11.92
2022-11-19T20:50:36.322Z,11.95
2022-11-19T20:53:03.165Z,11.97
2022-11-19T20:55:29.860Z,11.93
2022-11-19T20:57:56.725Z,11.89
2022-11-19T21:00:23.642Z,11.74
2022-11-19T21:02:50.348Z,11.74
2022-11-19T21:05:17.160Z,11.71
2022-11-19T21:07:43.929Z,11.70
2022-11-19T21:10:10.692Z,11.62
2022-11-19T21:12:57.411Z,11.58
2022-11-19T21:15:24.094Z,11.57
2022-11-19T21:17:50.784Z,11.57
2022-11-19T21:20:17.631Z,11.58
2022-11-19T21:22:48.105Z,11.60
2022-11-19T21:25:15.014Z,11.62
2022-11-19T21:27:42.083Z,11.54
2022-11-19T21:30:11.218Z,11.58
2022-11-19T21:32:38.411Z,11.60
2022-11-19T21:35:05.658Z,11.41
2022-11-19T21:37:32.422Z,11.62
2022-11-19T21:39:59.211Z,11.63
2022-11-19T21:42:25.983Z,11.61
2022-11-19T21:44:52.685Z,11.65
2022-11-19T21:47:19.380Z,11.61
2022-11-19T21:49:46.793Z,11.67
2022-11-19T21:52:13.498Z,11.68
2022-11-19T21:54:40.243Z,11.68
2022-11-19T21:57:06.984Z,11.75
2022-11-19T21:59:33.718Z,11.75
2022-11-19T22:02:00.517Z,11.77
2022-11-19T22:04:27.337Z,11.78
2022-11-19T22:06:54.043Z,11.76
2022-11-19T22:09:20.993Z,11.73
2022-11-19T22:11:47.916Z,11.69
2022-11-19T22:14:14.648Z,11.67
2022-11-19T22:16:41.419Z,11.73
2022-11-19T22:19:08.524Z,11.71
2022-11-19T22:21:35.923Z,11.68
2022-11-19T22:24:03.118Z,11.73
2022-11-19T22:26:30.600Z,11.77
2022-11-19T22:28:57.347Z,11.66
2022-11-19T22:31:25.446Z,11.84
2022-11-19T22:33:53.852Z,11.76
2022-11-19T22:36:22.443Z,11.75
2022-11-19T22:38:50.981Z,11.72
2022-11-19T22:41:19.923Z,11.81
2022-11-19T22:43:47.038Z,11.75
2022-11-19T22:46:14.581Z,11.77
2022-11-19T22:48:41.643Z,11.76
2022-11-19T22:51:12.859Z,11.79
2022-11-19T22:53:39.998Z,11.76
2022-11-19T22:56:10.056Z,11.78
2022-11-19T22:58:38.192Z,11.76
2022-11-19T23:01:07.040Z,11.79
2022-11-19T23:03:34.109Z,11.79
2022-11-19T23:06:00.805Z,11.88
2022-11-19T23:08:27.735Z,11.96
2022-11-19T23:11:02.665Z,12.00
2022-11-19T23:13:32.292Z,12.03
2022-11-19T23:16:25.092Z,11.97
2022-11-19T23:18:53.241Z,12.09
2022-11-19T23:21:23.001Z,12.13
2022-11-19T23:23:50.306Z,12.08
2022-11-19T23:26:19.966Z,12.09
2022-11-19T23:28:46.739Z,11.91
2022-11-19T23:31:19.198Z,12.06
2022-11-19T23:33:47.207Z,12.07
2022-11-19T23:36:16.600Z,12.14
2022-11-19T23:38:45.910Z,12.12
2022-11-19T23:41:14.590Z,12.12
2022-11-19T23:43:41.962Z,12.11
2022-11-19T23:46:11.545Z,12.12
2022-11-19T23:48:39.787Z,12.17
2022-11-19T23:51:18.178Z,12.15
2022-11-19T23:53:47.205Z,12.18
2022-11-19T23:56:15.723Z,12.20
2022-11-19T23:58:42.727Z,12.15
